Impacts METAR Board INFO
IDs:

KLAS - Las Vegas/McCarran I, NV, US

Updated at: 2138 UTC 18 Jan 2018
Potential Impact None Slight Moderate High
Time18/09Z 18/10Z 18/11Z 18/12Z 18/13Z 18/14Z 18/15Z 18/16Z 18/17Z 18/18Z 18/19Z 18/20Z 18/21Z
VIS10 10 10 10 10 10 10 10 10 10 10 10 10
CIG250 250 250 250 250 250 250 -- 250 250 250 250 250
CoverOVCOVCOVCOVCOVCOVCBKNSCTBKNBKNBKNBKNBKN
FltCatVFRVFRVFRVFRVFRVFRVFRVFRVFRVFRVFRVFRVFR
WX--------------------------
WDir020000000190015007080
WSpd0 4 0 0 0 0 0 3 0 4 0 4 6
WGst-- -- -- -- -- -- -- -- -- -- -- -- --
Raw hourly METARs
KLAS 180856Z 00000KT 10SM FEW220 OVC250 11/04 A3020 RMK AO2 SLP220 T01060044 58010
KLAS 180956Z 20004KT 10SM OVC250 11/04 A3019 RMK AO2 SLP216 T01060039
KLAS 181056Z 00000KT 10SM OVC250 11/04 A3018 RMK AO2 SLP210 T01060039
KLAS 181156Z 00000KT 10SM OVC250 10/04 A3017 RMK AO2 SLP209 T01000039 10133 20100 56010
KLAS 181256Z 00000KT 10SM OVC250 10/04 A3017 RMK AO2 SLP210 T01000039
KLAS 181356Z 00000KT 10SM OVC250 10/04 A3019 RMK AO2 SLP215 T01000039
KLAS 181456Z 00000KT 10SM BKN250 09/04 A3020 RMK AO2 SLP222 T00940039 53009
KLAS 181556Z 19003KT 10SM SCT250 11/04 A3022 RMK AO2 SLP230 T01110039
KLAS 181656Z 00000KT 10SM BKN250 13/04 A3024 RMK AO2 SLP234 T01330039
KLAS 181756Z 15004KT 10SM BKN250 15/03 A3023 RMK AO2 SLP229 T01500028 10150 20089 50009
KLAS 181856Z 00000KT 10SM BKN250 17/02 A3020 RMK AO2 SLP219 T01670022
KLAS 181956Z 07004KT 10SM BKN250 17/02 A3014 RMK AO2 SLP200 T01720017
KLAS 182056Z 08006KT 10SM BKN250 17/03 A3011 RMK AO2 SLP188 T01670028 58039